Halcott Center, New York
Current Conditions -  °F | °C
As of 3:55 PM on Tuesday 21 Oct 2014 (Local Time) from KMSV Reporting Station
Overcast Overcast  
Wind Chill: 50°   Ceiling: 3700
Heat Index: 50°   Visibility: 10mi
Dew Point: 48°   Wind: 6mph
Humidity: 94%   Direction: 70°ENE
Pressure: 29.88"   Gusts: NA
Location:  42.1993°N, 74.516°W
Report Text: KMSV 211955Z AUTO 07005KT 10SM FEW007 BKN037 OVC050 10/09 A2988 RMK AO1
Loading
Personal Weather Stations






























Interactive Weather Map
Tropical Storm Tracking
New forecast layout! Learn more

10-Day Weather Forecast

Advertisements
Track Severe Weather on mobile